createdAt,value
2023-05-20T00:00:50.096Z,9.89
2023-05-20T00:01:47.014Z,9.86
2023-05-20T00:02:44.022Z,9.81
2023-05-20T00:03:41.178Z,9.77
2023-05-20T00:04:38.514Z,9.71
2023-05-20T00:05:35.575Z,9.70
2023-05-20T00:06:32.712Z,9.64
2023-05-20T00:07:29.640Z,9.56
2023-05-20T00:08:26.741Z,9.45
2023-05-20T00:09:23.760Z,9.53
2023-05-20T00:10:20.756Z,9.49
2023-05-20T00:11:17.739Z,9.57
2023-05-20T00:12:14.707Z,9.61
2023-05-20T00:13:11.855Z,9.68
2023-05-20T00:14:08.830Z,9.76
2023-05-20T00:15:06.599Z,9.86
2023-05-20T00:16:03.710Z,9.87
2023-05-20T00:17:00.776Z,9.96
2023-05-20T00:17:57.964Z,9.87
2023-05-20T00:18:55.087Z,9.85
2023-05-20T00:19:53.257Z,9.87
2023-05-20T00:20:50.231Z,9.94
2023-05-20T00:21:47.202Z,9.99
2023-05-20T00:22:44.110Z,10.02
2023-05-20T00:23:41.351Z,10.06
2023-05-20T00:24:38.317Z,10.07
2023-05-20T00:25:35.514Z,10.02
2023-05-20T00:26:32.651Z,9.98
2023-05-20T00:27:29.612Z,9.81
2023-05-20T00:28:26.530Z,9.88
2023-05-20T00:29:23.543Z,9.89
2023-05-20T00:30:20.687Z,9.76
2023-05-20T00:31:17.693Z,9.74
2023-05-20T00:32:14.826Z,9.58
2023-05-20T00:33:11.799Z,9.56
2023-05-20T00:34:08.991Z,9.61
2023-05-20T00:35:06.522Z,9.68
2023-05-20T00:36:03.563Z,9.74
2023-05-20T00:37:00.614Z,9.82
2023-05-20T00:37:57.604Z,9.94
2023-05-20T00:38:54.585Z,9.95
2023-05-20T00:39:51.562Z,10.04
2023-05-20T00:40:48.547Z,10.03
2023-05-20T00:41:45.575Z,10.08
2023-05-20T00:42:42.624Z,10.08
2023-05-20T00:43:39.614Z,10.16
2023-05-20T00:44:36.581Z,10.18
2023-05-20T00:45:33.804Z,10.21
2023-05-20T00:46:31.159Z,10.17
2023-05-20T00:47:31.140Z,10.22
2023-05-20T00:48:33.479Z,10.23
2023-05-20T00:49:30.514Z,10.14
2023-05-20T00:50:28.127Z,10.01
2023-05-20T00:51:25.139Z,10.05
2023-05-20T00:52:22.917Z,9.93
2023-05-20T00:53:21.469Z,9.98
2023-05-20T00:54:18.407Z,9.94
2023-05-20T00:55:15.590Z,10.07
2023-05-20T00:56:12.912Z,10.08
2023-05-20T00:57:10.047Z,10.08
2023-05-20T00:58:07.060Z,10.13
2023-05-20T00:59:04.441Z,10.21
2023-05-20T01:00:01.563Z,10.22
2023-05-20T01:00:58.871Z,10.28
2023-05-20T01:01:57.008Z,10.27
2023-05-20T01:02:55.825Z,10.15
2023-05-20T01:03:53.426Z,10.13
2023-05-20T01:04:50.471Z,10.15
2023-05-20T01:05:47.369Z,10.14
2023-05-20T01:06:46.459Z,10.24
2023-05-20T01:07:43.530Z,10.34
2023-05-20T01:08:41.237Z,10.38
2023-05-20T01:09:38.184Z,10.31
2023-05-20T01:10:36.364Z,10.31
2023-05-20T01:11:40.277Z,10.21
2023-05-20T01:12:46.092Z,10.19
2023-05-20T01:13:49.776Z,10.29
2023-05-20T01:14:51.066Z,10.19
2023-05-20T01:15:49.741Z,10.19
2023-05-20T01:16:48.413Z,10.18
2023-05-20T01:17:47.273Z,10.30
2023-05-20T01:18:45.074Z,10.40
2023-05-20T01:19:45.839Z,10.47
2023-05-20T01:20:42.679Z,10.40
2023-05-20T01:21:39.863Z,10.49
2023-05-20T01:22:40.055Z,10.50
2023-05-20T01:23:41.542Z,10.48
2023-05-20T01:24:45.188Z,10.37
2023-05-20T01:25:42.689Z,10.38
2023-05-20T01:26:39.967Z,10.33
2023-05-20T01:27:37.384Z,10.40
2023-05-20T01:28:35.404Z,10.49
2023-05-20T01:29:33.133Z,10.45
2023-05-20T01:30:36.245Z,10.38
2023-05-20T01:31:34.357Z,10.42
2023-05-20T01:32:44.627Z,10.46
2023-05-20T01:33:42.068Z,10.61
2023-05-20T01:34:39.682Z,10.67
2023-05-20T01:35:37.005Z,10.65
2023-05-20T01:36:34.297Z,10.62
2023-05-20T01:37:31.942Z,10.46
2023-05-20T01:38:29.139Z,10.48
2023-05-20T01:39:26.544Z,10.58
2023-05-20T01:40:24.043Z,10.58
2023-05-20T01:41:22.624Z,10.49
2023-05-20T01:42:20.623Z,10.58
2023-05-20T01:43:18.878Z,10.59
2023-05-20T01:44:15.987Z,10.67
2023-05-20T01:45:13.133Z,10.67
2023-05-20T01:46:10.131Z,10.67
2023-05-20T01:47:07.183Z,10.70
2023-05-20T01:48:04.583Z,10.66
2023-05-20T01:49:01.703Z,10.62
2023-05-20T01:49:58.800Z,10.70
2023-05-20T01:50:55.891Z,10.70
2023-05-20T01:51:52.903Z,10.67
2023-05-20T01:52:49.906Z,10.77
2023-05-20T01:53:46.889Z,10.73
2023-05-20T01:54:43.828Z,10.56
2023-05-20T01:55:40.997Z,10.67
2023-05-20T01:56:37.919Z,10.63
2023-05-20T01:57:34.804Z,10.70
2023-05-20T01:58:31.880Z,10.77
2023-05-20T01:59:28.806Z,10.84
2023-05-20T02:00:25.814Z,10.81
2023-05-20T02:01:23.045Z,10.80
2023-05-20T02:02:20.235Z,10.67
2023-05-20T02:03:17.268Z,10.73
2023-05-20T02:04:14.777Z,10.79
2023-05-20T02:05:11.701Z,10.76
2023-05-20T02:06:08.680Z,10.70
2023-05-20T02:07:05.732Z,10.58
2023-05-20T02:08:02.737Z,10.66
2023-05-20T02:08:59.717Z,10.60
2023-05-20T02:09:56.600Z,10.67
2023-05-20T02:10:53.510Z,10.63
2023-05-20T02:11:50.424Z,10.61
2023-05-20T02:12:48.129Z,10.61
2023-05-20T02:13:45.161Z,10.49
2023-05-20T02:14:43.351Z,10.50
2023-05-20T02:15:43.634Z,10.53
2023-05-20T02:16:41.522Z,10.48
2023-05-20T02:17:39.891Z,10.54
2023-05-20T02:18:36.965Z,10.69
2023-05-20T02:19:33.872Z,10.59
2023-05-20T02:20:30.904Z,10.59
2023-05-20T02:21:27.798Z,10.63
2023-05-20T02:22:24.723Z,10.62
2023-05-20T02:23:21.630Z,10.68
2023-05-20T02:24:18.541Z,10.69
2023-05-20T02:25:15.739Z,10.80
2023-05-20T02:26:12.841Z,10.90
2023-05-20T02:27:09.833Z,10.92
2023-05-20T02:28:10.942Z,11.00
2023-05-20T02:29:08.092Z,11.06
2023-05-20T02:30:05.628Z,11.07
2023-05-20T02:31:02.623Z,11.04
2023-05-20T02:31:59.792Z,11.02
2023-05-20T02:32:58.067Z,10.94
2023-05-20T02:33:55.115Z,10.86
2023-05-20T02:34:52.041Z,10.73
2023-05-20T02:35:48.921Z,10.77
2023-05-20T02:36:45.895Z,10.82
2023-05-20T02:37:44.848Z,10.76
2023-05-20T02:38:41.783Z,10.67
2023-05-20T02:39:38.735Z,10.70
2023-05-20T02:40:35.734Z,10.64
2023-05-20T02:41:32.655Z,10.61
2023-05-20T02:42:29.627Z,10.74
2023-05-20T02:43:26.665Z,10.72
2023-05-20T02:44:23.711Z,10.71
2023-05-20T02:45:20.706Z,10.70
2023-05-20T02:46:19.824Z,10.69
2023-05-20T02:47:16.809Z,10.77
2023-05-20T02:48:13.790Z,10.85
2023-05-20T02:49:11.052Z,10.84
2023-05-20T02:50:09.180Z,10.85
2023-05-20T02:51:06.422Z,10.78
2023-05-20T02:52:04.551Z,10.77
2023-05-20T02:53:01.495Z,10.72
2023-05-20T02:53:58.627Z,10.75
2023-05-20T02:54:56.731Z,10.76
2023-05-20T02:55:53.608Z,10.77
2023-05-20T02:56:50.504Z,10.81
2023-05-20T02:57:47.564Z,10.80
2023-05-20T02:58:44.641Z,10.85
2023-05-20T02:59:42.532Z,10.81
2023-05-20T03:00:41.251Z,10.79
2023-05-20T03:01:38.520Z,10.93
2023-05-20T03:02:35.643Z,10.98
2023-05-20T03:03:32.742Z,11.02
2023-05-20T03:04:29.699Z,11.03
2023-05-20T03:05:27.694Z,10.94
2023-05-20T03:06:24.697Z,10.97
2023-05-20T03:07:22.643Z,11.04
2023-05-20T03:08:21.326Z,11.07
2023-05-20T03:09:19.767Z,11.16
2023-05-20T03:10:16.722Z,11.18
2023-05-20T03:11:13.709Z,11.23
2023-05-20T03:12:10.658Z,11.27
2023-05-20T03:13:09.684Z,11.31
2023-05-20T03:14:06.670Z,11.31
2023-05-20T03:15:04.026Z,11.34
2023-05-20T03:16:01.844Z,11.37
2023-05-20T03:17:00.271Z,11.34
2023-05-20T03:17:57.270Z,11.21
2023-05-20T03:18:55.046Z,11.29
2023-05-20T03:19:52.059Z,11.31
2023-05-20T03:20:48.994Z,11.26
2023-05-20T03:21:46.844Z,11.09
2023-05-20T03:22:43.751Z,11.20
2023-05-20T03:23:40.725Z,11.30
2023-05-20T03:24:37.889Z,11.17
2023-05-20T03:25:35.257Z,11.12
2023-05-20T03:26:34.074Z,11.18
2023-05-20T03:27:31.354Z,11.14
2023-05-20T03:28:28.344Z,11.03
2023-05-20T03:29:25.279Z,11.16
2023-05-20T03:30:22.674Z,11.21
2023-05-20T03:31:19.683Z,11.14
2023-05-20T03:32:17.078Z,11.03
2023-05-20T03:33:16.113Z,11.17
2023-05-20T03:34:13.058Z,11.09
2023-05-20T03:35:10.349Z,11.01
2023-05-20T03:36:07.335Z,10.90
2023-05-20T03:37:04.370Z,11.09
2023-05-20T03:38:02.067Z,11.12
2023-05-20T03:38:59.128Z,11.12
2023-05-20T03:39:56.214Z,11.25
2023-05-20T03:40:53.108Z,11.33
2023-05-20T03:41:50.386Z,11.36
2023-05-20T03:42:47.371Z,11.44
2023-05-20T03:43:44.450Z,11.41
2023-05-20T03:44:41.489Z,11.33
2023-05-20T03:45:38.580Z,11.36
2023-05-20T03:46:35.620Z,11.38
2023-05-20T03:47:33.051Z,11.51
2023-05-20T03:48:30.013Z,11.33
2023-05-20T03:49:26.914Z,11.35
2023-05-20T03:50:23.822Z,11.47
2023-05-20T03:51:20.982Z,11.57
2023-05-20T03:52:17.940Z,11.39
2023-05-20T03:53:14.881Z,11.51
2023-05-20T03:54:12.286Z,11.68
2023-05-20T03:55:09.689Z,11.68
2023-05-20T03:56:06.687Z,11.84
2023-05-20T03:57:03.803Z,12.03
2023-05-20T03:58:01.622Z,12.21
2023-05-20T03:58:58.582Z,12.37
2023-05-20T03:59:55.811Z,12.52
2023-05-20T04:00:52.817Z,12.42
2023-05-20T04:01:49.827Z,12.58
2023-05-20T04:02:47.170Z,12.75
2023-05-20T04:03:44.527Z,13.03
2023-05-20T04:04:44.386Z,13.33
2023-05-20T04:05:41.924Z,13.73
2023-05-20T04:06:38.932Z,14.12
2023-05-20T04:07:37.022Z,14.25
2023-05-20T04:08:36.862Z,14.52
2023-05-20T04:09:33.860Z,14.76
2023-05-20T04:10:32.440Z,14.68
2023-05-20T04:11:29.400Z,14.37
2023-05-20T04:12:30.803Z,14.55
2023-05-20T04:13:28.007Z,14.61
2023-05-20T04:14:25.205Z,14.56
2023-05-20T04:15:24.083Z,14.60
2023-05-20T04:16:21.290Z,14.69
2023-05-20T04:17:18.369Z,14.80
2023-05-20T04:18:15.347Z,14.88
2023-05-20T04:19:12.871Z,15.02
2023-05-20T04:20:12.199Z,15.13
2023-05-20T04:21:09.091Z,15.15
2023-05-20T04:22:06.451Z,15.38
2023-05-20T04:23:03.576Z,15.50
2023-05-20T04:24:00.764Z,15.68
2023-05-20T04:24:57.713Z,15.81
2023-05-20T04:25:55.496Z,15.82
2023-05-20T04:26:52.625Z,15.98
2023-05-20T04:27:49.986Z,16.03
2023-05-20T04:28:49.934Z,16.10
2023-05-20T04:29:47.586Z,16.10
2023-05-20T04:30:45.496Z,16.17
2023-05-20T04:31:42.494Z,15.96
2023-05-20T04:32:39.605Z,15.96
2023-05-20T04:33:39.948Z,15.93
2023-05-20T04:34:37.556Z,16.12
2023-05-20T04:35:35.723Z,16.17
2023-05-20T04:36:32.978Z,16.35
2023-05-20T04:37:29.992Z,16.35
2023-05-20T04:38:30.345Z,16.44
2023-05-20T04:39:27.418Z,16.57
2023-05-20T04:40:24.441Z,17.10
2023-05-20T04:41:21.385Z,17.57
2023-05-20T04:42:20.124Z,18.15
2023-05-20T04:43:17.704Z,18.53
2023-05-20T04:44:14.866Z,18.87
2023-05-20T04:45:12.692Z,18.97
2023-05-20T04:46:10.055Z,19.32
2023-05-20T04:47:10.120Z,19.33
2023-05-20T04:48:07.270Z,19.37
2023-05-20T04:49:04.724Z,19.13
2023-05-20T04:50:01.702Z,18.89
2023-05-20T04:50:58.714Z,18.77
2023-05-20T04:51:55.885Z,18.83
2023-05-20T04:52:52.920Z,18.44
2023-05-20T04:53:51.055Z,18.37
2023-05-20T04:54:48.568Z,18.36
2023-05-20T04:55:49.960Z,18.16
2023-05-20T04:56:49.596Z,17.98
2023-05-20T04:57:46.727Z,17.86
2023-05-20T04:58:43.738Z,17.55
2023-05-20T04:59:40.945Z,17.46
2023-05-20T05:00:37.909Z,17.60
2023-05-20T05:01:34.916Z,17.76
2023-05-20T05:02:31.832Z,18.03
2023-05-20T05:03:28.780Z,17.92
2023-05-20T05:04:25.922Z,17.89
2023-05-20T05:05:22.928Z,18.00
2023-05-20T05:06:20.006Z,18.12
2023-05-20T05:07:17.027Z,18.09
2023-05-20T05:08:14.067Z,17.90
2023-05-20T05:09:11.058Z,17.55
2023-05-20T05:10:08.512Z,17.80
2023-05-20T05:11:08.607Z,17.74
2023-05-20T05:12:06.268Z,17.83
2023-05-20T05:13:03.229Z,17.65
2023-05-20T05:14:00.350Z,17.59
2023-05-20T05:14:59.011Z,17.69
2023-05-20T05:16:02.730Z,17.57
2023-05-20T05:16:59.705Z,17.20
2023-05-20T05:17:56.734Z,17.58
2023-05-20T05:18:53.816Z,17.85
2023-05-20T05:19:50.785Z,18.00
2023-05-20T05:20:47.806Z,17.88
2023-05-20T05:21:44.747Z,18.04
2023-05-20T05:22:41.925Z,18.19
2023-05-20T05:23:38.913Z,18.34
2023-05-20T05:24:35.842Z,18.38
2023-05-20T05:25:33.347Z,18.10
2023-05-20T05:26:30.582Z,18.16
2023-05-20T05:27:27.510Z,17.99
2023-05-20T05:28:24.792Z,17.52
2023-05-20T05:29:22.201Z,17.70
2023-05-20T05:30:19.238Z,17.83
2023-05-20T05:31:16.227Z,17.85
2023-05-20T05:32:13.387Z,18.02
2023-05-20T05:33:11.136Z,18.20
2023-05-20T05:34:08.184Z,18.22
2023-05-20T05:35:07.471Z,18.29
2023-05-20T05:36:06.684Z,17.97
2023-05-20T05:37:03.839Z,17.86
2023-05-20T05:38:00.892Z,18.02
2023-05-20T05:38:59.091Z,17.97
2023-05-20T05:39:55.995Z,17.72
2023-05-20T05:40:53.543Z,17.76
2023-05-20T05:41:50.613Z,17.86
2023-05-20T05:42:47.755Z,17.94
2023-05-20T05:43:44.688Z,18.15
2023-05-20T05:44:41.658Z,17.89
2023-05-20T05:45:39.196Z,17.76
2023-05-20T05:46:36.124Z,17.66
2023-05-20T05:47:33.153Z,17.87
2023-05-20T05:48:30.084Z,18.00
2023-05-20T05:49:27.098Z,18.14
2023-05-20T05:50:24.067Z,18.17
2023-05-20T05:51:21.157Z,18.14
2023-05-20T05:52:18.188Z,17.98
2023-05-20T05:53:15.364Z,17.69
2023-05-20T05:54:12.303Z,17.66
2023-05-20T05:55:10.826Z,17.89
2023-05-20T05:56:08.096Z,17.89
2023-05-20T05:57:06.560Z,17.69
2023-05-20T05:58:03.633Z,17.50
2023-05-20T05:59:00.683Z,17.66
2023-05-20T05:59:57.601Z,17.71
2023-05-20T06:00:55.137Z,17.89
2023-05-20T06:01:52.224Z,18.14
2023-05-20T06:02:49.479Z,18.32
2023-05-20T06:03:46.790Z,18.34
2023-05-20T06:04:43.876Z,18.41
2023-05-20T06:05:40.814Z,18.32
2023-05-20T06:06:37.934Z,18.11
2023-05-20T06:07:34.996Z,18.36
2023-05-20T06:08:31.954Z,18.56
2023-05-20T06:09:29.268Z,18.64
2023-05-20T06:10:27.199Z,18.48
2023-05-20T06:11:24.610Z,18.56
2023-05-20T06:12:21.701Z,18.45
2023-05-20T06:13:19.050Z,18.46
2023-05-20T06:14:16.313Z,18.51
2023-05-20T06:15:13.929Z,18.43
2023-05-20T06:16:11.037Z,18.40
2023-05-20T06:17:08.213Z,18.56
2023-05-20T06:18:06.155Z,18.82
2023-05-20T06:19:05.678Z,18.89
2023-05-20T06:20:02.943Z,18.84
2023-05-20T06:21:00.349Z,18.79
2023-05-20T06:21:59.046Z,18.72
2023-05-20T06:22:56.004Z,18.64
2023-05-20T06:23:52.977Z,18.67
2023-05-20T06:24:50.393Z,18.82
2023-05-20T06:25:48.715Z,18.67
2023-05-20T06:26:46.427Z,18.68
2023-05-20T06:27:43.572Z,18.66
2023-05-20T06:28:40.595Z,18.59
2023-05-20T06:29:37.593Z,18.40
2023-05-20T06:30:34.610Z,18.45
2023-05-20T06:31:32.130Z,18.33
2023-05-20T06:32:29.364Z,18.46
2023-05-20T06:33:27.864Z,18.57
2023-05-20T06:34:25.586Z,18.48
2023-05-20T06:35:22.573Z,18.55
2023-05-20T06:36:19.545Z,18.74
2023-05-20T06:37:17.533Z,18.83
2023-05-20T06:38:14.977Z,18.64
2023-05-20T06:39:12.738Z,18.88
2023-05-20T06:40:10.510Z,19.06
2023-05-20T06:41:07.697Z,19.32
2023-05-20T06:42:05.018Z,19.37
2023-05-20T06:43:02.142Z,19.45
2023-05-20T06:43:59.545Z,19.35
2023-05-20T06:44:56.580Z,19.24
2023-05-20T06:45:54.492Z,19.43
2023-05-20T06:46:51.628Z,19.53
2023-05-20T06:47:50.274Z,19.53
2023-05-20T06:48:47.279Z,19.56
2023-05-20T06:49:47.336Z,19.26
2023-05-20T06:50:46.425Z,19.38
2023-05-20T06:51:44.474Z,19.43
2023-05-20T06:52:41.612Z,19.15
2023-05-20T06:53:38.689Z,19.32
2023-05-20T06:54:40.316Z,19.43
2023-05-20T06:55:38.437Z,19.36
2023-05-20T06:56:35.517Z,19.46
2023-05-20T06:57:32.514Z,19.33
2023-05-20T06:58:30.623Z,19.29
2023-05-20T06:59:27.805Z,19.20
2023-05-20T07:00:24.926Z,19.25
2023-05-20T07:01:22.505Z,19.07
2023-05-20T07:02:20.116Z,19.16
2023-05-20T07:03:17.252Z,18.96
2023-05-20T07:04:14.329Z,19.31
2023-05-20T07:05:12.350Z,19.51
2023-05-20T07:06:09.571Z,19.69
2023-05-20T07:07:07.437Z,19.61
2023-05-20T07:08:05.056Z,19.45
2023-05-20T07:09:02.551Z,19.34
2023-05-20T07:09:59.721Z,19.34
2023-05-20T07:10:57.320Z,19.53
2023-05-20T07:11:54.688Z,19.68
2023-05-20T07:12:52.038Z,19.82
2023-05-20T07:13:49.120Z,20.06
2023-05-20T07:14:46.111Z,20.19
2023-05-20T07:15:47.078Z,20.34
2023-05-20T07:16:45.060Z,20.26
2023-05-20T07:17:42.288Z,20.19
2023-05-20T07:18:39.393Z,19.85
2023-05-20T07:20:01.396Z,19.81
2023-05-20T07:20:58.585Z,19.92
2023-05-20T07:21:55.623Z,19.81
2023-05-20T07:22:52.521Z,19.75
2023-05-20T07:23:49.655Z,19.82
2023-05-20T07:24:46.646Z,19.89
2023-05-20T07:25:43.637Z,19.84
2023-05-20T07:26:41.465Z,20.06
2023-05-20T07:27:38.565Z,20.24
2023-05-20T07:28:37.566Z,20.29
2023-05-20T07:29:36.180Z,20.24
2023-05-20T07:30:33.296Z,20.08
2023-05-20T07:31:31.114Z,20.19
2023-05-20T07:32:28.193Z,20.52
2023-05-20T07:33:25.335Z,20.55
2023-05-20T07:34:24.073Z,20.56
2023-05-20T07:35:21.072Z,20.53
2023-05-20T07:36:18.197Z,20.40
2023-05-20T07:37:16.870Z,20.35
2023-05-20T07:38:13.976Z,20.30
2023-05-20T07:39:13.429Z,20.09
2023-05-20T07:40:13.344Z,20.31
2023-05-20T07:41:13.243Z,20.21
2023-05-20T07:42:10.344Z,20.23
2023-05-20T07:43:08.481Z,20.48
2023-05-20T07:44:05.971Z,20.56
2023-05-20T07:45:03.190Z,20.62
2023-05-20T07:46:02.736Z,20.46
2023-05-20T07:47:00.392Z,20.47
2023-05-20T07:47:57.810Z,20.37
2023-05-20T07:48:54.920Z,20.37
2023-05-20T07:49:52.067Z,20.37
2023-05-20T07:50:49.012Z,20.56
2023-05-20T07:51:47.346Z,20.34
2023-05-20T07:52:56.086Z,20.32
2023-05-20T07:53:53.852Z,20.43
2023-05-20T07:54:50.852Z,20.76
2023-05-20T07:55:52.195Z,20.82
2023-05-20T07:56:50.153Z,20.84
2023-05-20T07:57:51.743Z,20.89
2023-05-20T07:58:57.003Z,20.86
2023-05-20T07:59:53.979Z,20.95
2023-05-20T08:00:51.511Z,21.02
2023-05-20T08:01:48.629Z,21.10
2023-05-20T08:02:45.740Z,21.07
2023-05-20T08:03:42.873Z,21.05
2023-05-20T08:04:40.609Z,20.99
2023-05-20T08:05:38.892Z,20.92
2023-05-20T08:06:35.943Z,20.85
2023-05-20T08:07:32.852Z,20.55
2023-05-20T08:08:31.050Z,20.57
2023-05-20T08:09:28.048Z,20.57
2023-05-20T08:10:25.053Z,20.51
2023-05-20T08:11:22.553Z,20.65
2023-05-20T08:12:20.112Z,20.62
2023-05-20T08:13:17.051Z,20.69
2023-05-20T08:14:14.060Z,20.71
2023-05-20T08:15:11.889Z,20.76
2023-05-20T08:16:08.793Z,20.87
2023-05-20T08:17:06.524Z,20.94
2023-05-20T08:18:03.551Z,20.88
2023-05-20T08:19:00.652Z,20.90
2023-05-20T08:19:57.601Z,21.10
2023-05-20T08:20:54.595Z,21.03
2023-05-20T08:21:51.524Z,21.11
2023-05-20T08:22:48.523Z,21.26
2023-05-20T08:23:45.553Z,21.30
2023-05-20T08:24:42.519Z,21.24
2023-05-20T08:25:39.622Z,21.23
2023-05-20T08:26:36.563Z,21.38
2023-05-20T08:27:33.706Z,21.37
2023-05-20T08:28:31.463Z,21.10
2023-05-20T08:29:28.385Z,20.97
2023-05-20T08:30:25.364Z,21.06
2023-05-20T08:31:22.399Z,21.25
2023-05-20T08:32:19.294Z,21.40
2023-05-20T08:33:16.479Z,21.49
2023-05-20T08:34:13.383Z,21.50
2023-05-20T08:35:10.876Z,21.36
2023-05-20T08:36:08.618Z,21.48
2023-05-20T08:37:05.769Z,21.61
2023-05-20T08:38:03.078Z,21.48
2023-05-20T08:39:00.121Z,21.62
2023-05-20T08:39:57.170Z,21.55
2023-05-20T08:40:56.310Z,21.51
2023-05-20T08:41:53.288Z,21.44
2023-05-20T08:42:53.074Z,21.43
2023-05-20T08:43:50.968Z,21.17
2023-05-20T08:44:48.285Z,21.18
2023-05-20T08:45:45.330Z,21.39
2023-05-20T08:46:42.422Z,21.52
2023-05-20T08:47:43.757Z,21.64
2023-05-20T08:48:40.799Z,21.81
2023-05-20T08:49:37.988Z,21.77
2023-05-20T08:50:34.967Z,21.64
2023-05-20T08:51:33.872Z,21.43
2023-05-20T08:52:32.331Z,21.56
2023-05-20T08:53:30.010Z,21.62
2023-05-20T08:54:31.515Z,21.84
2023-05-20T08:55:44.280Z,21.98
2023-05-20T08:56:42.242Z,21.83
2023-05-20T08:57:42.286Z,21.73
2023-05-20T08:58:39.399Z,21.86
2023-05-20T08:59:36.914Z,22.01
2023-05-20T09:00:34.073Z,22.19
2023-05-20T09:01:31.357Z,22.14
2023-05-20T09:02:28.240Z,22.17
2023-05-20T09:03:25.929Z,22.02
2023-05-20T09:04:22.994Z,21.89
2023-05-20T09:05:20.027Z,22.02
2023-05-20T09:06:20.415Z,22.17
2023-05-20T09:07:28.138Z,22.36
2023-05-20T09:08:27.301Z,22.31
2023-05-20T09:09:24.248Z,22.41
2023-05-20T09:10:22.467Z,22.42
2023-05-20T09:11:21.996Z,22.65
2023-05-20T09:12:21.539Z,22.30
2023-05-20T09:13:18.444Z,22.26
2023-05-20T09:14:15.485Z,22.37
2023-05-20T09:15:12.417Z,22.34
2023-05-20T09:16:11.448Z,22.17
2023-05-20T09:17:08.630Z,22.30
2023-05-20T09:18:07.959Z,22.57
2023-05-20T09:19:07.619Z,22.62
2023-05-20T09:20:11.394Z,22.64
2023-05-20T09:21:08.531Z,22.65
2023-05-20T09:22:06.306Z,22.65
2023-05-20T09:23:07.793Z,22.74
2023-05-20T09:24:05.033Z,22.72
2023-05-20T09:25:02.316Z,22.93
2023-05-20T09:26:01.872Z,23.01
2023-05-20T09:26:58.898Z,23.02
2023-05-20T09:27:56.361Z,23.06
2023-05-20T09:28:53.617Z,23.12
2023-05-20T09:29:51.836Z,23.12
2023-05-20T09:30:50.423Z,23.05
2023-05-20T09:31:47.925Z,23.12
2023-05-20T09:32:45.399Z,23.12
2023-05-20T09:33:42.685Z,23.05
2023-05-20T09:34:39.979Z,22.91
2023-05-20T09:35:39.866Z,23.03
2023-05-20T09:36:41.972Z,23.15
2023-05-20T09:37:39.597Z,23.20
2023-05-20T09:38:40.333Z,23.29
2023-05-20T09:40:06.664Z,23.27
2023-05-20T09:41:12.929Z,22.96
2023-05-20T09:42:18.170Z,23.22
2023-05-20T09:43:15.862Z,23.38
2023-05-20T09:44:13.285Z,23.34
2023-05-20T09:45:10.774Z,23.22
2023-05-20T09:46:08.876Z,23.30
2023-05-20T09:47:08.731Z,23.26
2023-05-20T09:48:06.099Z,23.40
2023-05-20T09:49:03.537Z,23.46
2023-05-20T09:50:00.831Z,23.63
2023-05-20T09:50:58.328Z,23.77
2023-05-20T09:51:55.762Z,23.69
2023-05-20T09:52:54.249Z,23.61
2023-05-20T09:53:51.917Z,23.68
2023-05-20T09:54:50.068Z,23.57
2023-05-20T09:55:47.308Z,23.47
2023-05-20T09:56:44.949Z,23.64
2023-05-20T09:57:42.644Z,23.59
2023-05-20T09:58:40.681Z,23.59
2023-05-20T09:59:38.662Z,23.63
2023-05-20T10:00:36.137Z,23.43
2023-05-20T10:01:33.364Z,23.29
2023-05-20T10:02:30.449Z,23.29
2023-05-20T10:03:28.368Z,23.42
2023-05-20T10:04:27.152Z,23.55
2023-05-20T10:05:30.346Z,23.46
2023-05-20T10:07:12.151Z,23.68
2023-05-20T10:08:44.087Z,23.78
2023-05-20T10:09:41.497Z,23.73
2023-05-20T10:10:54.050Z,23.46
2023-05-20T10:12:08.399Z,23.59
2023-05-20T10:13:18.510Z,23.79
2023-05-20T10:14:30.762Z,23.90
2023-05-20T10:15:34.724Z,23.95
2023-05-20T10:16:39.046Z,23.65
2023-05-20T10:17:51.339Z,23.87
2023-05-20T10:19:22.044Z,24.05
2023-05-20T10:20:19.448Z,23.80
2023-05-20T10:21:17.462Z,23.97
2023-05-20T10:22:14.741Z,23.91
2023-05-20T10:23:23.867Z,23.80
2023-05-20T10:24:30.276Z,23.50
2023-05-20T10:25:28.825Z,23.56
2023-05-20T10:26:38.554Z,23.61
2023-05-20T10:27:46.314Z,23.76
2023-05-20T10:28:43.655Z,23.78
2023-05-20T10:29:51.554Z,23.82
2023-05-20T10:30:51.645Z,24.07
2023-05-20T10:31:52.746Z,24.05
2023-05-20T10:32:53.920Z,24.00
2023-05-20T10:33:53.363Z,23.75
2023-05-20T10:34:51.140Z,23.96
2023-05-20T10:35:50.734Z,24.09
2023-05-20T10:36:58.865Z,24.33
2023-05-20T10:38:11.343Z,24.17
2023-05-20T10:39:08.308Z,23.93
2023-05-20T10:40:15.814Z,23.81
2023-05-20T10:41:13.060Z,23.82
2023-05-20T10:42:11.569Z,23.84
2023-05-20T10:43:15.802Z,23.89
2023-05-20T10:44:12.779Z,24.01
2023-05-20T10:45:10.820Z,24.15
2023-05-20T10:46:31.213Z,24.21
2023-05-20T10:47:32.617Z,24.16
2023-05-20T10:48:34.567Z,23.75
2023-05-20T10:49:35.324Z,23.62
2023-05-20T10:50:37.557Z,23.61
2023-05-20T10:51:37.740Z,23.69
2023-05-20T10:52:37.878Z,23.70
2023-05-20T10:53:42.456Z,23.98
2023-05-20T10:54:56.394Z,24.05
2023-05-20T10:55:55.127Z,23.93
2023-05-20T10:56:53.856Z,23.95
2023-05-20T10:57:51.939Z,24.00
2023-05-20T10:58:49.454Z,24.10
2023-05-20T10:59:47.823Z,24.22
2023-05-20T11:00:44.809Z,24.30
2023-05-20T11:01:43.048Z,24.23
2023-05-20T11:02:40.951Z,24.27
2023-05-20T11:03:39.384Z,24.32
2023-05-20T11:04:36.835Z,24.25
2023-05-20T11:05:34.293Z,23.95
2023-05-20T11:06:31.867Z,23.95
2023-05-20T11:07:30.969Z,24.08
2023-05-20T11:08:34.050Z,24.37
2023-05-20T11:09:32.421Z,24.60
2023-05-20T11:10:29.699Z,24.51
2023-05-20T11:11:26.732Z,24.44
2023-05-20T11:12:26.797Z,24.36
2023-05-20T11:13:23.979Z,24.41
2023-05-20T11:14:21.997Z,24.29
2023-05-20T11:15:18.991Z,24.27
2023-05-20T11:16:16.147Z,24.38
2023-05-20T11:17:13.062Z,24.36
2023-05-20T11:18:11.841Z,24.44
2023-05-20T11:19:09.699Z,24.41
2023-05-20T11:20:07.559Z,24.25
2023-05-20T11:21:04.677Z,24.28
2023-05-20T11:22:01.786Z,24.49
2023-05-20T11:22:58.771Z,24.64
2023-05-20T11:23:55.796Z,24.63
2023-05-20T11:24:52.849Z,24.69
2023-05-20T11:25:53.453Z,24.73
2023-05-20T11:26:50.210Z,24.77
2023-05-20T11:27:47.674Z,24.93
2023-05-20T11:28:44.697Z,25.01
2023-05-20T11:29:41.786Z,24.82
2023-05-20T11:30:38.813Z,24.81
2023-05-20T11:31:38.336Z,24.57
2023-05-20T11:32:35.376Z,24.62
2023-05-20T11:33:32.332Z,24.69
2023-05-20T11:34:37.111Z,24.72
2023-05-20T11:35:34.310Z,24.78
2023-05-20T11:36:33.664Z,24.65
2023-05-20T11:37:30.901Z,24.78
2023-05-20T11:38:28.214Z,24.74
2023-05-20T11:39:27.062Z,24.90
2023-05-20T11:40:28.696Z,24.87
2023-05-20T11:41:29.894Z,25.06
2023-05-20T11:42:28.492Z,24.91
2023-05-20T11:43:25.612Z,24.96
2023-05-20T11:44:22.672Z,24.90
2023-05-20T11:45:19.667Z,24.89
2023-05-20T11:46:16.673Z,24.90
2023-05-20T11:47:13.726Z,24.95
2023-05-20T11:48:12.453Z,25.06
2023-05-20T11:49:09.618Z,24.74
2023-05-20T11:50:07.703Z,24.84
2023-05-20T11:51:05.222Z,24.77
2023-05-20T11:52:03.701Z,24.84
2023-05-20T11:53:02.895Z,25.02
2023-05-20T11:54:01.880Z,25.08
2023-05-20T11:54:58.866Z,25.09
2023-05-20T11:55:57.242Z,25.19
2023-05-20T11:56:55.019Z,25.12
2023-05-20T11:57:53.431Z,25.06
2023-05-20T11:58:50.362Z,25.20
2023-05-20T11:59:47.956Z,25.26
2023-05-20T12:00:52.810Z,25.26
2023-05-20T12:01:51.906Z,25.18
2023-05-20T12:02:48.906Z,25.19
2023-05-20T12:03:46.287Z,25.15
2023-05-20T12:04:43.463Z,25.12
2023-05-20T12:05:41.356Z,25.22
2023-05-20T12:06:38.450Z,25.00
2023-05-20T12:07:35.392Z,24.93
2023-05-20T12:08:32.331Z,24.87
2023-05-20T12:09:29.309Z,24.99
2023-05-20T12:10:26.527Z,25.13
2023-05-20T12:11:23.517Z,25.40
2023-05-20T12:12:20.597Z,25.22
2023-05-20T12:13:18.087Z,25.38
2023-05-20T12:14:14.982Z,25.42
2023-05-20T12:15:12.208Z,25.45
2023-05-20T12:16:09.203Z,25.42
2023-05-20T12:17:06.205Z,25.44
2023-05-20T12:18:03.801Z,25.47
2023-05-20T12:19:01.461Z,25.26
2023-05-20T12:19:58.422Z,25.29
2023-05-20T12:20:55.479Z,25.45
2023-05-20T12:21:54.276Z,25.45
2023-05-20T12:22:51.686Z,25.21
2023-05-20T12:23:48.763Z,25.34
2023-05-20T12:24:45.737Z,25.36
2023-05-20T12:25:42.948Z,25.46
2023-05-20T12:26:41.643Z,24.97
2023-05-20T12:27:38.978Z,24.92
2023-05-20T12:28:36.478Z,24.93
2023-05-20T12:29:33.956Z,24.83
2023-05-20T12:30:31.249Z,24.94
2023-05-20T12:31:28.157Z,24.81
2023-05-20T12:32:25.225Z,24.78